sensor_id;sensor_type;location;lat;lon;timestamp;noise_LAeq;noise_LA_min;noise_LA_max;noise_LA01;noise_LA95
72686;Laerm;61365;52.162;4.500;2023-05-29T00:00:32;42.47;38.78;51.87;;
72686;Laerm;61365;52.162;4.500;2023-05-29T00:02:59;42.57;34.18;52.12;;
72686;Laerm;61365;52.162;4.500;2023-05-29T00:05:25;42.61;39.43;44.56;;
72686;Laerm;61365;52.162;4.500;2023-05-29T00:07:51;42.51;37.83;44.62;;
72686;Laerm;61365;52.162;4.500;2023-05-29T00:10:17;42.46;36.53;44.68;;
72686;Laerm;61365;52.162;4.500;2023-05-29T00:12:43;42.42;36.26;44.41;;
72686;Laerm;61365;52.162;4.500;2023-05-29T00:15:10;42.45;35.91;44.76;;
72686;Laerm;61365;52.162;4.500;2023-05-29T00:17:39;42.45;38.26;44.46;;
72686;Laerm;61365;52.162;4.500;2023-05-29T00:20:06;42.51;38.11;44.71;;
72686;Laerm;61365;52.162;4.500;2023-05-29T00:22:35;42.44;37.64;44.60;;
72686;Laerm;61365;52.162;4.500;2023-05-29T00:25:05;42.43;39.46;44.44;;
72686;Laerm;61365;52.162;4.500;2023-05-29T00:27:31;42.46;39.23;44.46;;
72686;Laerm;61365;52.162;4.500;2023-05-29T00:29:59;42.40;35.83;44.50;;
72686;Laerm;61365;52.162;4.500;2023-05-29T00:32:26;42.40;34.39;52.44;;
72686;Laerm;61365;52.162;4.500;2023-05-29T00:34:53;42.41;34.61;52.86;;
72686;Laerm;61365;52.162;4.500;2023-05-29T00:37:20;42.45;37.89;44.56;;
72686;Laerm;61365;52.162;4.500;2023-05-29T00:39:48;42.44;37.71;44.75;;
72686;Laerm;61365;52.162;4.500;2023-05-29T00:42:14;42.40;39.02;44.62;;
72686;Laerm;61365;52.162;4.500;2023-05-29T00:44:40;42.34;37.44;44.75;;
72686;Laerm;61365;52.162;4.500;2023-05-29T00:47:07;42.36;40.05;44.48;;
72686;Laerm;61365;52.162;4.500;2023-05-29T00:49:36;42.25;37.27;44.72;;
72686;Laerm;61365;52.162;4.500;2023-05-29T00:52:03;42.27;37.74;44.36;;
72686;Laerm;61365;52.162;4.500;2023-05-29T00:54:31;42.32;34.74;52.05;;
72686;Laerm;61365;52.162;4.500;2023-05-29T00:56:58;42.43;38.45;44.54;;
72686;Laerm;61365;52.162;4.500;2023-05-29T00:59:27;42.52;37.61;44.40;;
72686;Laerm;61365;52.162;4.500;2023-05-29T01:01:55;42.57;35.42;51.86;;
72686;Laerm;61365;52.162;4.500;2023-05-29T01:04:23;42.55;38.26;44.65;;
72686;Laerm;61365;52.162;4.500;2023-05-29T01:06:49;42.59;39.21;44.87;;
72686;Laerm;61365;52.162;4.500;2023-05-29T01:09:15;42.32;39.10;44.25;;
72686;Laerm;61365;52.162;4.500;2023-05-29T01:11:57;42.24;37.87;44.74;;
72686;Laerm;61365;52.162;4.500;2023-05-29T01:14:45;42.25;35.41;44.57;;
72686;Laerm;61365;52.162;4.500;2023-05-29T01:17:17;42.25;34.20;44.45;;
72686;Laerm;61365;52.162;4.500;2023-05-29T01:20:05;42.28;39.77;44.28;;
72686;Laerm;61365;52.162;4.500;2023-05-29T01:22:38;42.25;36.41;44.52;;
72686;Laerm;61365;52.162;4.500;2023-05-29T01:25:19;42.27;38.23;44.33;;
72686;Laerm;61365;52.162;4.500;2023-05-29T01:27:47;42.53;38.78;44.87;;
72686;Laerm;61365;52.162;4.500;2023-05-29T01:30:15;42.53;36.79;44.45;;
72686;Laerm;61365;52.162;4.500;2023-05-29T01:32:42;42.57;37.86;44.76;;
72686;Laerm;61365;52.162;4.500;2023-05-29T01:35:09;42.59;39.46;44.54;;
72686;Laerm;61365;52.162;4.500;2023-05-29T01:37:35;42.50;34.41;52.52;;
72686;Laerm;61365;52.162;4.500;2023-05-29T01:40:01;42.28;34.30;52.61;;
72686;Laerm;61365;52.162;4.500;2023-05-29T01:42:28;42.51;39.99;44.46;;
72686;Laerm;61365;52.162;4.500;2023-05-29T01:44:55;42.54;35.14;52.85;;
72686;Laerm;61365;52.162;4.500;2023-05-29T01:47:23;42.58;37.30;52.31;;
72686;Laerm;61365;52.162;4.500;2023-05-29T01:49:51;42.52;37.80;44.50;;
72686;Laerm;61365;52.162;4.500;2023-05-29T01:52:18;42.56;39.31;44.46;;
72686;Laerm;61365;52.162;4.500;2023-05-29T01:54:44;42.54;39.41;44.58;;
72686;Laerm;61365;52.162;4.500;2023-05-29T01:57:11;42.56;39.90;44.57;;
72686;Laerm;61365;52.162;4.500;2023-05-29T01:59:38;42.50;38.33;44.40;;
72686;Laerm;61365;52.162;4.500;2023-05-29T02:02:08;42.50;38.48;44.46;;
72686;Laerm;61365;52.162;4.500;2023-05-29T02:04:34;42.51;34.46;52.93;;
72686;Laerm;61365;52.162;4.500;2023-05-29T02:07:00;42.49;38.40;44.85;;
72686;Laerm;61365;52.162;4.500;2023-05-29T02:09:26;42.51;36.58;44.60;;
72686;Laerm;61365;52.162;4.500;2023-05-29T02:11:52;42.44;36.65;44.49;;
72686;Laerm;61365;52.162;4.500;2023-05-29T02:14:18;42.67;36.23;45.22;;
72686;Laerm;61365;52.162;4.500;2023-05-29T02:16:44;42.51;35.60;44.76;;
72686;Laerm;61365;52.162;4.500;2023-05-29T02:19:11;42.82;37.61;45.10;;
72686;Laerm;61365;52.162;4.500;2023-05-29T02:21:40;42.71;40.28;44.91;;
72686;Laerm;61365;52.162;4.500;2023-05-29T02:24:09;42.74;33.05;52.55;;
72686;Laerm;61365;52.162;4.500;2023-05-29T02:26:35;42.63;40.23;44.62;;
72686;Laerm;61365;52.162;4.500;2023-05-29T02:29:04;42.84;40.29;45.02;;
72686;Laerm;61365;52.162;4.500;2023-05-29T02:31:33;42.86;33.60;52.52;;
72686;Laerm;61365;52.162;4.500;2023-05-29T02:33:59;42.75;40.14;45.00;;
72686;Laerm;61365;52.162;4.500;2023-05-29T02:36:25;42.73;37.62;45.10;;
72686;Laerm;61365;52.162;4.500;2023-05-29T02:38:51;42.83;37.50;45.12;;
72686;Laerm;61365;52.162;4.500;2023-05-29T02:41:17;42.76;32.66;52.16;;
72686;Laerm;61365;52.162;4.500;2023-05-29T02:43:43;42.58;40.26;44.75;;
72686;Laerm;61365;52.162;4.500;2023-05-29T02:46:10;42.71;40.03;44.83;;
72686;Laerm;61365;52.162;4.500;2023-05-29T02:48:36;42.69;35.26;44.67;;
72686;Laerm;61365;52.162;4.500;2023-05-29T02:51:02;42.80;38.87;45.00;;
72686;Laerm;61365;52.162;4.500;2023-05-29T02:53:28;42.75;35.68;45.00;;
72686;Laerm;61365;52.162;4.500;2023-05-29T02:55:54;42.70;40.29;44.84;;
72686;Laerm;61365;52.162;4.500;2023-05-29T02:58:20;42.67;36.21;52.73;;
72686;Laerm;61365;52.162;4.500;2023-05-29T03:00:47;42.60;37.35;44.57;;
72686;Laerm;61365;52.162;4.500;2023-05-29T03:03:13;42.64;36.51;44.70;;
72686;Laerm;61365;52.162;4.500;2023-05-29T03:05:39;42.70;39.90;44.70;;
72686;Laerm;61365;52.162;4.500;2023-05-29T03:08:05;42.64;40.14;44.64;;
72686;Laerm;61365;52.162;4.500;2023-05-29T03:10:31;42.69;39.32;44.65;;
72686;Laerm;61365;52.162;4.500;2023-05-29T03:12:58;42.74;37.91;45.22;;
72686;Laerm;61365;52.162;4.500;2023-05-29T03:15:24;42.71;33.76;52.01;;
72686;Laerm;61365;52.162;4.500;2023-05-29T03:17:50;42.69;39.59;44.96;;
72686;Laerm;61365;52.162;4.500;2023-05-29T03:20:16;42.74;36.20;44.77;;
72686;Laerm;61365;52.162;4.500;2023-05-29T03:22:42;42.64;35.42;51.89;;
72686;Laerm;61365;52.162;4.500;2023-05-29T03:25:09;42.61;34.35;44.83;;
72686;Laerm;61365;52.162;4.500;2023-05-29T03:27:35;42.59;37.37;44.56;;
72686;Laerm;61365;52.162;4.500;2023-05-29T03:30:01;42.76;40.15;44.66;;
72686;Laerm;61365;52.162;4.500;2023-05-29T03:32:28;42.68;37.83;44.95;;
72686;Laerm;61365;52.162;4.500;2023-05-29T03:34:54;42.78;39.00;44.54;;
72686;Laerm;61365;52.162;4.500;2023-05-29T03:37:22;42.69;40.16;44.67;;
72686;Laerm;61365;52.162;4.500;2023-05-29T03:39:48;42.67;40.33;44.60;;
72686;Laerm;61365;52.162;4.500;2023-05-29T03:42:14;42.76;39.55;45.06;;
72686;Laerm;61365;52.162;4.500;2023-05-29T03:44:41;42.67;39.50;44.58;;
72686;Laerm;61365;52.162;4.500;2023-05-29T03:47:07;42.61;36.00;50.31;;
72686;Laerm;61365;52.162;4.500;2023-05-29T03:49:34;42.66;39.44;44.63;;
72686;Laerm;61365;52.162;4.500;2023-05-29T03:52:00;42.64;39.71;44.64;;
72686;Laerm;61365;52.162;4.500;2023-05-29T03:54:26;42.70;39.48;44.70;;
72686;Laerm;61365;52.162;4.500;2023-05-29T03:56:52;42.66;38.47;44.79;;
72686;Laerm;61365;52.162;4.500;2023-05-29T03:59:18;42.76;37.75;44.90;;
72686;Laerm;61365;52.162;4.500;2023-05-29T04:01:45;42.61;34.50;51.84;;
72686;Laerm;61365;52.162;4.500;2023-05-29T04:04:11;42.73;39.38;44.66;;
72686;Laerm;61365;52.162;4.500;2023-05-29T04:06:37;42.75;38.98;45.23;;
72686;Laerm;61365;52.162;4.500;2023-05-29T04:09:06;42.69;39.78;44.68;;
72686;Laerm;61365;52.162;4.500;2023-05-29T04:11:33;42.79;38.96;44.89;;
72686;Laerm;61365;52.162;4.500;2023-05-29T04:14:01;42.60;37.84;44.41;;
72686;Laerm;61365;52.162;4.500;2023-05-29T04:16:28;42.59;39.77;44.68;;
72686;Laerm;61365;52.162;4.500;2023-05-29T04:18:57;42.52;39.53;44.75;;
72686;Laerm;61365;52.162;4.500;2023-05-29T04:21:23;42.39;40.12;44.59;;
72686;Laerm;61365;52.162;4.500;2023-05-29T04:23:49;42.43;34.61;52.54;;
72686;Laerm;61365;52.162;4.500;2023-05-29T04:26:15;42.37;38.75;44.73;;
72686;Laerm;61365;52.162;4.500;2023-05-29T04:28:41;42.54;40.10;44.67;;
72686;Laerm;61365;52.162;4.500;2023-05-29T04:31:09;42.62;38.87;45.02;;
72686;Laerm;61365;52.162;4.500;2023-05-29T04:33:40;42.62;38.68;44.81;;
72686;Laerm;61365;52.162;4.500;2023-05-29T04:36:06;42.67;39.87;44.84;;
72686;Laerm;61365;52.162;4.500;2023-05-29T04:38:34;42.71;39.99;45.14;;
72686;Laerm;61365;52.162;4.500;2023-05-29T04:41:02;42.69;38.82;44.77;;
72686;Laerm;61365;52.162;4.500;2023-05-29T04:43:29;42.69;40.07;44.90;;
72686;Laerm;61365;52.162;4.500;2023-05-29T04:45:55;42.68;39.94;44.84;;
72686;Laerm;61365;52.162;4.500;2023-05-29T04:48:22;42.59;38.46;44.89;;
72686;Laerm;61365;52.162;4.500;2023-05-29T04:50:48;42.59;40.07;44.68;;
72686;Laerm;61365;52.162;4.500;2023-05-29T04:53:14;42.51;40.03;44.45;;
72686;Laerm;61365;52.162;4.500;2023-05-29T04:55:40;42.61;40.12;44.73;;
72686;Laerm;61365;52.162;4.500;2023-05-29T04:58:07;42.57;39.71;44.34;;
72686;Laerm;61365;52.162;4.500;2023-05-29T05:00:33;42.56;37.68;44.71;;
72686;Laerm;61365;52.162;4.500;2023-05-29T05:03:00;42.59;35.59;44.57;;
72686;Laerm;61365;52.162;4.500;2023-05-29T05:05:26;42.52;33.46;44.58;;
72686;Laerm;61365;52.162;4.500;2023-05-29T05:07:52;42.55;33.87;50.03;;
72686;Laerm;61365;52.162;4.500;2023-05-29T05:10:18;42.48;33.26;50.84;;
72686;Laerm;61365;52.162;4.500;2023-05-29T05:12:44;42.53;39.39;44.39;;
72686;Laerm;61365;52.162;4.500;2023-05-29T05:15:10;42.53;39.10;44.53;;
72686;Laerm;61365;52.162;4.500;2023-05-29T05:17:36;42.59;34.73;50.40;;
72686;Laerm;61365;52.162;4.500;2023-05-29T05:20:03;42.47;40.07;44.67;;
72686;Laerm;61365;52.162;4.500;2023-05-29T05:22:31;42.53;39.81;44.67;;
72686;Laerm;61365;52.162;4.500;2023-05-29T05:24:58;42.56;40.31;44.59;;
72686;Laerm;61365;52.162;4.500;2023-05-29T05:27:25;42.51;39.74;44.59;;
72686;Laerm;61365;52.162;4.500;2023-05-29T05:29:51;42.54;34.38;51.55;;
72686;Laerm;61365;52.162;4.500;2023-05-29T05:32:17;42.53;40.43;44.55;;
72686;Laerm;61365;52.162;4.500;2023-05-29T05:34:43;42.62;33.55;44.49;;
72686;Laerm;61365;52.162;4.500;2023-05-29T05:37:09;42.63;40.51;44.54;;
72686;Laerm;61365;52.162;4.500;2023-05-29T05:39:36;42.64;40.10;44.93;;
72686;Laerm;61365;52.162;4.500;2023-05-29T05:42:02;42.67;40.14;44.91;;
72686;Laerm;61365;52.162;4.500;2023-05-29T05:44:28;42.54;39.87;44.84;;
72686;Laerm;61365;52.162;4.500;2023-05-29T05:46:54;42.35;40.18;44.32;;
72686;Laerm;61365;52.162;4.500;2023-05-29T05:49:20;42.23;33.49;51.90;;
72686;Laerm;61365;52.162;4.500;2023-05-29T05:51:47;42.43;39.78;44.34;;
72686;Laerm;61365;52.162;4.500;2023-05-29T05:54:13;42.35;39.97;44.30;;
72686;Laerm;61365;52.162;4.500;2023-05-29T05:56:39;42.50;40.26;44.66;;
72686;Laerm;61365;52.162;4.500;2023-05-29T05:59:06;42.27;39.77;44.43;;
72686;Laerm;61365;52.162;4.500;2023-05-29T06:01:32;42.30;39.95;44.48;;
72686;Laerm;61365;52.162;4.500;2023-05-29T06:03:58;42.45;38.74;44.56;;
72686;Laerm;61365;52.162;4.500;2023-05-29T06:06:25;42.45;40.37;44.70;;
72686;Laerm;61365;52.162;4.500;2023-05-29T06:08:51;42.37;40.36;44.34;;
72686;Laerm;61365;52.162;4.500;2023-05-29T06:11:19;42.37;34.00;52.10;;
72686;Laerm;61365;52.162;4.500;2023-05-29T06:13:45;42.32;40.03;44.44;;
72686;Laerm;61365;52.162;4.500;2023-05-29T06:16:11;42.41;33.00;51.34;;
72686;Laerm;61365;52.162;4.500;2023-05-29T06:18:38;42.43;40.05;44.50;;
72686;Laerm;61365;52.162;4.500;2023-05-29T06:21:05;42.34;40.35;44.54;;
72686;Laerm;61365;52.162;4.500;2023-05-29T06:23:33;42.41;40.22;44.56;;
72686;Laerm;61365;52.162;4.500;2023-05-29T06:26:03;42.34;39.88;44.67;;
72686;Laerm;61365;52.162;4.500;2023-05-29T06:28:33;42.29;39.93;44.46;;
72686;Laerm;61365;52.162;4.500;2023-05-29T06:30:59;42.21;33.03;51.54;;
72686;Laerm;61365;52.162;4.500;2023-05-29T06:33:37;42.18;40.00;44.24;;
72686;Laerm;61365;52.162;4.500;2023-05-29T06:36:04;42.22;39.14;44.11;;
72686;Laerm;61365;52.162;4.500;2023-05-29T06:38:30;42.16;38.96;44.11;;
72686;Laerm;61365;52.162;4.500;2023-05-29T06:40:56;42.16;39.79;44.18;;
72686;Laerm;61365;52.162;4.500;2023-05-29T06:43:22;42.25;34.36;51.61;;
72686;Laerm;61365;52.162;4.500;2023-05-29T06:45:48;42.27;39.63;44.29;;
72686;Laerm;61365;52.162;4.500;2023-05-29T06:48:14;42.20;39.84;44.46;;
72686;Laerm;61365;52.162;4.500;2023-05-29T06:50:40;42.20;33.03;52.53;;
72686;Laerm;61365;52.162;4.500;2023-05-29T06:53:06;42.22;39.71;44.05;;
72686;Laerm;61365;52.162;4.500;2023-05-29T06:55:33;42.15;39.14;43.93;;
72686;Laerm;61365;52.162;4.500;2023-05-29T06:57:59;42.31;39.92;44.47;;
72686;Laerm;61365;52.162;4.500;2023-05-29T07:00:25;42.27;40.09;44.30;;
72686;Laerm;61365;52.162;4.500;2023-05-29T07:02:51;42.21;39.73;44.15;;
72686;Laerm;61365;52.162;4.500;2023-05-29T07:05:17;42.16;39.79;44.21;;
72686;Laerm;61365;52.162;4.500;2023-05-29T07:07:43;42.32;39.99;44.43;;
72686;Laerm;61365;52.162;4.500;2023-05-29T07:10:09;42.16;40.21;44.34;;
72686;Laerm;61365;52.162;4.500;2023-05-29T07:12:36;42.33;39.91;44.36;;
72686;Laerm;61365;52.162;4.500;2023-05-29T07:15:02;42.18;39.78;44.32;;
72686;Laerm;61365;52.162;4.500;2023-05-29T07:17:28;42.13;39.74;44.13;;
72686;Laerm;61365;52.162;4.500;2023-05-29T07:19:54;42.31;39.91;44.36;;
72686;Laerm;61365;52.162;4.500;2023-05-29T07:22:20;42.24;39.94;44.38;;
72686;Laerm;61365;52.162;4.500;2023-05-29T07:24:46;42.20;40.02;44.14;;
72686;Laerm;61365;52.162;4.500;2023-05-29T07:27:13;42.20;39.79;44.21;;
72686;Laerm;61365;52.162;4.500;2023-05-29T07:29:39;42.13;39.20;44.07;;
72686;Laerm;61365;52.162;4.500;2023-05-29T07:32:06;42.19;39.44;44.25;;
72686;Laerm;61365;52.162;4.500;2023-05-29T07:34:32;42.16;34.09;44.15;;
72686;Laerm;61365;52.162;4.500;2023-05-29T07:37:05;42.16;39.38;44.08;;
72686;Laerm;61365;52.162;4.500;2023-05-29T07:39:33;42.24;39.55;44.36;;
72686;Laerm;61365;52.162;4.500;2023-05-29T07:42:00;42.21;33.14;44.24;;
72686;Laerm;61365;52.162;4.500;2023-05-29T07:44:29;42.15;39.61;44.25;;
72686;Laerm;61365;52.162;4.500;2023-05-29T07:46:56;42.19;39.82;44.29;;
72686;Laerm;61365;52.162;4.500;2023-05-29T07:49:22;42.16;39.84;44.17;;
72686;Laerm;61365;52.162;4.500;2023-05-29T07:51:48;42.17;39.62;44.13;;
72686;Laerm;61365;52.162;4.500;2023-05-29T07:54:14;42.18;39.86;44.26;;
72686;Laerm;61365;52.162;4.500;2023-05-29T07:56:43;42.16;39.88;44.18;;
72686;Laerm;61365;52.162;4.500;2023-05-29T07:59:10;42.20;39.76;44.37;;
72686;Laerm;61365;52.162;4.500;2023-05-29T08:01:37;42.28;32.73;48.89;;
72686;Laerm;61365;52.162;4.500;2023-05-29T08:04:05;42.23;39.86;44.42;;
72686;Laerm;61365;52.162;4.500;2023-05-29T08:06:31;42.17;39.50;44.23;;
72686;Laerm;61365;52.162;4.500;2023-05-29T08:09:00;42.20;32.99;52.13;;
72686;Laerm;61365;52.162;4.500;2023-05-29T08:11:26;41.98;39.48;44.26;;
72686;Laerm;61365;52.162;4.500;2023-05-29T08:13:52;42.03;39.52;44.23;;
72686;Laerm;61365;52.162;4.500;2023-05-29T08:16:19;41.97;39.47;44.11;;
72686;Laerm;61365;52.162;4.500;2023-05-29T08:18:45;41.94;39.84;43.90;;
72686;Laerm;61365;52.162;4.500;2023-05-29T08:21:11;41.87;39.33;44.16;;
72686;Laerm;61365;52.162;4.500;2023-05-29T08:23:38;42.06;39.77;44.59;;
72686;Laerm;61365;52.162;4.500;2023-05-29T08:26:04;42.07;38.70;44.52;;
72686;Laerm;61365;52.162;4.500;2023-05-29T08:28:37;41.89;39.30;43.86;;
72686;Laerm;61365;52.162;4.500;2023-05-29T08:31:03;41.92;39.47;43.88;;
72686;Laerm;61365;52.162;4.500;2023-05-29T08:33:30;41.90;39.62;43.95;;
72686;Laerm;61365;52.162;4.500;2023-05-29T08:36:00;42.01;39.73;44.24;;
72686;Laerm;61365;52.162;4.500;2023-05-29T08:38:26;41.87;39.60;43.94;;
72686;Laerm;61365;52.162;4.500;2023-05-29T08:40:53;42.18;32.85;44.17;;
72686;Laerm;61365;52.162;4.500;2023-05-29T08:43:21;42.25;33.38;52.30;;
72686;Laerm;61365;52.162;4.500;2023-05-29T08:45:54;42.06;34.80;51.21;;
72686;Laerm;61365;52.162;4.500;2023-05-29T08:48:23;42.02;33.43;51.04;;
72686;Laerm;61365;52.162;4.500;2023-05-29T08:50:52;41.94;39.76;44.05;;
72686;Laerm;61365;52.162;4.500;2023-05-29T08:53:19;42.00;39.34;44.25;;
72686;Laerm;61365;52.162;4.500;2023-05-29T08:55:47;41.90;39.65;43.96;;
72686;Laerm;61365;52.162;4.500;2023-05-29T08:58:14;41.85;33.78;51.16;;
72686;Laerm;61365;52.162;4.500;2023-05-29T09:00:41;41.89;32.73;51.03;;
72686;Laerm;61365;52.162;4.500;2023-05-29T09:03:08;41.77;33.28;44.86;;
72686;Laerm;61365;52.162;4.500;2023-05-29T09:05:34;42.10;39.54;44.31;;
72686;Laerm;61365;52.162;4.500;2023-05-29T09:08:06;41.92;38.76;43.91;;
72686;Laerm;61365;52.162;4.500;2023-05-29T09:10:33;42.16;39.87;44.01;;
72686;Laerm;61365;52.162;4.500;2023-05-29T09:12:59;42.24;40.02;44.32;;
72686;Laerm;61365;52.162;4.500;2023-05-29T09:15:26;42.20;39.80;44.15;;
72686;Laerm;61365;52.162;4.500;2023-05-29T09:17:54;42.03;39.79;44.07;;
72686;Laerm;61365;52.162;4.500;2023-05-29T09:20:23;42.13;33.58;51.44;;
72686;Laerm;61365;52.162;4.500;2023-05-29T09:23:02;42.04;39.53;44.64;;
72686;Laerm;61365;52.162;4.500;2023-05-29T09:25:31;41.90;39.66;44.36;;
72686;Laerm;61365;52.162;4.500;2023-05-29T09:28:00;41.92;39.49;44.05;;
72686;Laerm;61365;52.162;4.500;2023-05-29T09:30:37;41.80;39.65;43.86;;
72686;Laerm;61365;52.162;4.500;2023-05-29T09:33:05;42.17;39.89;44.28;;
72686;Laerm;61365;52.162;4.500;2023-05-29T09:35:47;42.20;39.45;44.51;;
72686;Laerm;61365;52.162;4.500;2023-05-29T09:38:19;42.20;39.91;44.62;;
72686;Laerm;61365;52.162;4.500;2023-05-29T09:40:46;42.23;39.77;44.24;;
72686;Laerm;61365;52.162;4.500;2023-05-29T09:43:16;42.19;40.00;44.58;;
72686;Laerm;61365;52.162;4.500;2023-05-29T09:45:49;42.13;39.17;44.54;;
72686;Laerm;61365;52.162;4.500;2023-05-29T09:48:22;42.04;32.95;44.31;;
72686;Laerm;61365;52.162;4.500;2023-05-29T09:50:49;42.19;40.00;44.83;;
72686;Laerm;61365;52.162;4.500;2023-05-29T09:53:20;42.23;39.81;44.51;;
72686;Laerm;61365;52.162;4.500;2023-05-29T09:55:48;42.19;39.82;44.48;;
72686;Laerm;61365;52.162;4.500;2023-05-29T09:58:19;42.22;39.75;44.34;;
72686;Laerm;61365;52.162;4.500;2023-05-29T10:00:46;42.27;33.96;52.09;;
72686;Laerm;61365;52.162;4.500;2023-05-29T10:03:13;42.12;39.95;44.58;;
72686;Laerm;61365;52.162;4.500;2023-05-29T10:05:40;41.99;38.93;43.96;;
72686;Laerm;61365;52.162;4.500;2023-05-29T10:08:10;42.07;39.82;44.20;;
72686;Laerm;61365;52.162;4.500;2023-05-29T10:10:39;42.18;39.67;44.18;;
72686;Laerm;61365;52.162;4.500;2023-05-29T10:13:06;42.07;39.70;44.21;;
72686;Laerm;61365;52.162;4.500;2023-05-29T10:15:35;42.04;33.98;44.23;;
72686;Laerm;61365;52.162;4.500;2023-05-29T10:18:03;41.98;39.25;44.10;;
72686;Laerm;61365;52.162;4.500;2023-05-29T10:20:31;42.15;39.82;44.55;;
72686;Laerm;61365;52.162;4.500;2023-05-29T10:23:00;42.22;33.52;53.45;;
72686;Laerm;61365;52.162;4.500;2023-05-29T10:25:31;42.09;39.90;44.49;;
72686;Laerm;61365;52.162;4.500;2023-05-29T10:27:58;41.98;39.59;44.28;;
72686;Laerm;61365;52.162;4.500;2023-05-29T10:31:01;42.01;39.45;44.40;;
72686;Laerm;61365;52.162;4.500;2023-05-29T10:36:13;42.24;39.56;44.86;;
72686;Laerm;61365;52.162;4.500;2023-05-29T10:38:46;42.19;39.77;44.41;;
72686;Laerm;61365;52.162;4.500;2023-05-29T10:43:58;42.22;39.55;44.08;;
72686;Laerm;61365;52.162;4.500;2023-05-29T10:49:20;42.23;39.71;44.25;;
72686;Laerm;61365;52.162;4.500;2023-05-29T10:51:48;42.19;39.85;44.40;;
72686;Laerm;61365;52.162;4.500;2023-05-29T10:54:14;41.99;39.40;44.38;;
72686;Laerm;61365;52.162;4.500;2023-05-29T10:56:44;42.23;39.68;44.18;;
72686;Laerm;61365;52.162;4.500;2023-05-29T10:59:17;42.20;39.63;44.22;;
72686;Laerm;61365;52.162;4.500;2023-05-29T11:01:44;42.30;40.18;44.23;;
72686;Laerm;61365;52.162;4.500;2023-05-29T11:06:52;42.26;39.49;44.58;;
72686;Laerm;61365;52.162;4.500;2023-05-29T11:12:17;42.25;33.36;44.40;;
72686;Laerm;61365;52.162;4.500;2023-05-29T11:15:05;42.28;39.54;44.27;;
72686;Laerm;61365;52.162;4.500;2023-05-29T11:17:43;42.16;40.10;44.38;;
72686;Laerm;61365;52.162;4.500;2023-05-29T11:20:35;42.09;39.53;44.32;;
72686;Laerm;61365;52.162;4.500;2023-05-29T11:23:05;42.21;39.33;44.28;;
72686;Laerm;61365;52.162;4.500;2023-05-29T11:25:36;42.25;39.68;44.39;;
72686;Laerm;61365;52.162;4.500;2023-05-29T11:28:04;42.01;33.08;44.20;;
72686;Laerm;61365;52.162;4.500;2023-05-29T11:30:45;42.14;38.93;44.46;;
72686;Laerm;61365;52.162;4.500;2023-05-29T11:33:23;41.96;38.77;43.98;;
72686;Laerm;61365;52.162;4.500;2023-05-29T11:35:56;42.22;39.79;44.44;;
72686;Laerm;61365;52.162;4.500;2023-05-29T11:38:24;42.28;39.71;44.61;;
72686;Laerm;61365;52.162;4.500;2023-05-29T11:40:53;42.17;39.64;44.07;;
72686;Laerm;61365;52.162;4.500;2023-05-29T11:43:21;42.14;39.69;44.61;;
72686;Laerm;61365;52.162;4.500;2023-05-29T11:45:47;41.93;39.58;44.01;;
72686;Laerm;61365;52.162;4.500;2023-05-29T11:48:14;41.79;39.12;43.70;;
72686;Laerm;61365;52.162;4.500;2023-05-29T11:50:40;42.18;39.88;44.54;;
72686;Laerm;61365;52.162;4.500;2023-05-29T11:53:07;42.14;39.65;44.16;;
72686;Laerm;61365;52.162;4.500;2023-05-29T11:55:36;42.23;39.67;44.29;;
72686;Laerm;61365;52.162;4.500;2023-05-29T11:58:06;42.16;35.24;52.09;;
72686;Laerm;61365;52.162;4.500;2023-05-29T12:00:33;42.20;39.70;44.46;;
72686;Laerm;61365;52.162;4.500;2023-05-29T12:03:00;42.11;33.34;44.84;;
72686;Laerm;61365;52.162;4.500;2023-05-29T12:05:38;42.23;39.87;44.81;;
72686;Laerm;61365;52.162;4.500;2023-05-29T12:08:10;42.04;36.64;44.14;;
72686;Laerm;61365;52.162;4.500;2023-05-29T12:10:36;42.08;39.89;44.06;;
72686;Laerm;61365;52.162;4.500;2023-05-29T12:13:03;42.13;39.76;44.11;;
72686;Laerm;61365;52.162;4.500;2023-05-29T12:15:29;42.24;39.99;44.51;;
72686;Laerm;61365;52.162;4.500;2023-05-29T12:17:55;42.03;39.54;43.97;;
72686;Laerm;61365;52.162;4.500;2023-05-29T12:20:23;41.97;37.57;43.95;;
72686;Laerm;61365;52.162;4.500;2023-05-29T12:22:52;42.10;39.73;44.12;;
72686;Laerm;61365;52.162;4.500;2023-05-29T12:25:22;42.09;38.17;44.36;;
72686;Laerm;61365;52.162;4.500;2023-05-29T12:27:49;42.24;40.09;44.32;;
72686;Laerm;61365;52.162;4.500;2023-05-29T12:32:46;42.32;38.41;44.59;;
72686;Laerm;61365;52.162;4.500;2023-05-29T12:40:14;42.22;39.99;44.37;;
72686;Laerm;61365;52.162;4.500;2023-05-29T12:42:42;42.23;39.69;44.20;;
72686;Laerm;61365;52.162;4.500;2023-05-29T12:45:08;42.24;39.78;44.31;;
72686;Laerm;61365;52.162;4.500;2023-05-29T12:47:36;42.19;39.44;44.60;;
72686;Laerm;61365;52.162;4.500;2023-05-29T12:50:38;42.17;39.79;44.42;;
72686;Laerm;61365;52.162;4.500;2023-05-29T12:53:12;42.27;38.88;44.85;;
72686;Laerm;61365;52.162;4.500;2023-05-29T12:55:41;42.21;39.73;44.36;;
72686;Laerm;61365;52.162;4.500;2023-05-29T12:58:12;42.19;32.92;44.26;;
72686;Laerm;61365;52.162;4.500;2023-05-29T13:00:40;42.26;39.94;44.30;;
72686;Laerm;61365;52.162;4.500;2023-05-29T13:03:08;42.23;39.86;44.24;;
72686;Laerm;61365;52.162;4.500;2023-05-29T13:05:34;42.27;40.00;45.90;;
72686;Laerm;61365;52.162;4.500;2023-05-29T13:08:01;42.20;39.09;44.31;;
72686;Laerm;61365;52.162;4.500;2023-05-29T13:10:28;42.16;39.77;44.22;;
72686;Laerm;61365;52.162;4.500;2023-05-29T13:12:55;42.21;34.22;51.67;;
72686;Laerm;61365;52.162;4.500;2023-05-29T13:15:24;42.26;39.83;44.25;;
72686;Laerm;61365;52.162;4.500;2023-05-29T13:17:52;42.26;39.62;47.24;;
72686;Laerm;61365;52.162;4.500;2023-05-29T13:20:18;42.24;39.91;44.25;;
72686;Laerm;61365;52.162;4.500;2023-05-29T13:22:47;41.95;39.64;44.23;;
72686;Laerm;61365;52.162;4.500;2023-05-29T13:25:14;42.12;39.78;44.15;;
72686;Laerm;61365;52.162;4.500;2023-05-29T13:27:42;41.94;39.68;44.02;;
72686;Laerm;61365;52.162;4.500;2023-05-29T13:30:09;42.23;33.76;44.25;;
72686;Laerm;61365;52.162;4.500;2023-05-29T13:32:36;42.21;39.80;44.14;;
72686;Laerm;61365;52.162;4.500;2023-05-29T13:35:03;42.29;40.06;44.47;;
72686;Laerm;61365;52.162;4.500;2023-05-29T13:37:29;42.28;39.91;44.35;;
72686;Laerm;61365;52.162;4.500;2023-05-29T13:39:55;42.24;40.02;44.28;;
72686;Laerm;61365;52.162;4.500;2023-05-29T13:42:22;42.27;39.78;44.47;;
72686;Laerm;61365;52.162;4.500;2023-05-29T13:44:48;42.27;40.20;44.39;;
72686;Laerm;61365;52.162;4.500;2023-05-29T13:47:15;42.24;40.03;44.34;;
72686;Laerm;61365;52.162;4.500;2023-05-29T13:49:41;42.25;39.81;44.27;;
72686;Laerm;61365;52.162;4.500;2023-05-29T13:52:07;42.24;39.81;44.56;;
72686;Laerm;61365;52.162;4.500;2023-05-29T13:54:33;42.26;40.10;44.08;;
72686;Laerm;61365;52.162;4.500;2023-05-29T13:57:05;42.22;39.82;44.28;;
72686;Laerm;61365;52.162;4.500;2023-05-29T13:59:33;42.19;39.74;44.07;;
72686;Laerm;61365;52.162;4.500;2023-05-29T14:01:59;42.08;39.62;44.32;;
72686;Laerm;61365;52.162;4.500;2023-05-29T14:04:26;41.76;39.62;43.87;;
72686;Laerm;61365;52.162;4.500;2023-05-29T14:06:52;41.75;39.45;43.71;;
72686;Laerm;61365;52.162;4.500;2023-05-29T14:09:18;41.82;39.75;43.91;;